createdAt,value
2022-12-06T00:01:21.136Z,5.80
2022-12-06T00:03:53.442Z,8.00
2022-12-06T00:06:22.358Z,7.10
2022-12-06T00:08:50.627Z,7.60
2022-12-06T00:11:21.032Z,6.80
2022-12-06T00:13:52.825Z,6.10
2022-12-06T00:16:20.071Z,7.20
2022-12-06T00:18:47.478Z,6.70
2022-12-06T00:21:23.938Z,5.80
2022-12-06T00:23:57.202Z,6.20
2022-12-06T00:26:24.157Z,6.70
2022-12-06T00:28:55.993Z,6.10
2022-12-06T00:31:25.803Z,6.80
2022-12-06T00:33:53.306Z,8.40
2022-12-06T00:36:23.820Z,6.20
2022-12-06T00:38:51.315Z,5.00
2022-12-06T00:41:23.591Z,7.20
2022-12-06T00:43:51.764Z,6.80
2022-12-06T00:46:24.559Z,7.20
2022-12-06T00:48:53.239Z,7.60
2022-12-06T00:51:21.665Z,7.20
2022-12-06T00:53:49.201Z,7.80
2022-12-06T00:56:16.654Z,5.70
2022-12-06T00:58:44.417Z,6.90
2022-12-06T01:01:12.535Z,6.10
2022-12-06T01:03:40.551Z,8.10
2022-12-06T01:06:11.340Z,8.80
2022-12-06T01:08:39.541Z,6.60
2022-12-06T01:11:07.440Z,6.30
2022-12-06T01:13:35.206Z,7.00
2022-12-06T01:16:10.884Z,8.60
2022-12-06T01:18:38.392Z,6.90
2022-12-06T01:21:14.525Z,6.80
2022-12-06T01:23:43.247Z,6.90
2022-12-06T01:26:36.295Z,8.30
2022-12-06T01:29:04.581Z,7.50
2022-12-06T01:31:37.537Z,8.00
2022-12-06T01:34:13.646Z,8.20
2022-12-06T01:36:40.540Z,10.00
2022-12-06T01:39:09.944Z,8.80
2022-12-06T01:41:38.387Z,6.40
2022-12-06T01:44:06.304Z,6.40
2022-12-06T01:46:41.545Z,6.80
2022-12-06T01:49:11.249Z,8.10
2022-12-06T01:51:44.893Z,7.60
2022-12-06T01:54:14.437Z,6.20
2022-12-06T01:56:41.240Z,5.90
2022-12-06T01:59:09.226Z,5.90
2022-12-06T02:01:38.621Z,7.10
2022-12-06T02:04:06.982Z,7.90
2022-12-06T02:06:35.053Z,6.40
2022-12-06T02:09:05.301Z,7.70
2022-12-06T02:11:35.348Z,7.40
2022-12-06T02:14:06.788Z,6.20
2022-12-06T02:16:39.669Z,5.80
2022-12-06T02:19:28.068Z,7.70
2022-12-06T02:22:09.839Z,7.50
2022-12-06T02:25:34.066Z,6.60
2022-12-06T02:28:22.774Z,5.50
2022-12-06T02:31:11.675Z,7.10
2022-12-06T02:33:41.288Z,5.00
2022-12-06T02:36:27.034Z,5.70
2022-12-06T02:39:02.915Z,6.60
2022-12-06T02:41:45.171Z,8.40
2022-12-06T02:44:31.547Z,7.00
2022-12-06T02:47:01.101Z,6.50
2022-12-06T02:49:32.505Z,8.20
2022-12-06T02:52:00.719Z,7.70
2022-12-06T02:54:29.423Z,6.60
2022-12-06T02:56:56.270Z,7.80
2022-12-06T02:59:23.343Z,6.70
2022-12-06T03:01:55.848Z,7.50
2022-12-06T03:04:53.303Z,8.60
2022-12-06T03:07:19.996Z,5.90
2022-12-06T03:10:08.583Z,7.10
2022-12-06T03:12:54.842Z,7.20
2022-12-06T03:16:06.738Z,7.20
2022-12-06T03:18:50.183Z,8.20
2022-12-06T03:21:52.417Z,5.20
2022-12-06T03:24:22.151Z,7.50
2022-12-06T03:26:51.006Z,5.00
2022-12-06T03:29:21.620Z,5.80
2022-12-06T03:31:50.245Z,8.60
2022-12-06T03:34:41.185Z,7.80
2022-12-06T03:37:13.007Z,6.40
2022-12-06T03:39:58.803Z,6.60
2022-12-06T03:42:26.398Z,6.80
2022-12-06T03:44:53.371Z,5.90
2022-12-06T03:47:30.603Z,6.70
2022-12-06T03:50:02.621Z,5.60
2022-12-06T03:52:30.233Z,6.70
2022-12-06T03:54:57.150Z,8.10
2022-12-06T03:57:24.155Z,9.00
2022-12-06T03:59:50.997Z,8.30
2022-12-06T04:02:18.455Z,6.30
2022-12-06T04:04:45.539Z,7.20
2022-12-06T04:07:12.520Z,6.90
2022-12-06T04:10:03.068Z,6.70
2022-12-06T04:12:52.043Z,6.70
2022-12-06T04:15:20.394Z,7.40
2022-12-06T04:18:05.859Z,6.70
2022-12-06T04:20:53.208Z,7.40
2022-12-06T04:23:21.073Z,6.60
2022-12-06T04:25:48.319Z,6.90
2022-12-06T04:28:33.804Z,7.20
2022-12-06T04:31:22.322Z,6.70
2022-12-06T04:34:09.380Z,8.00
2022-12-06T04:36:56.974Z,6.60
2022-12-06T04:39:24.351Z,5.70
2022-12-06T04:42:10.203Z,7.50
2022-12-06T04:44:38.951Z,6.80
2022-12-06T04:47:06.553Z,8.70
2022-12-06T04:49:35.127Z,9.60
2022-12-06T04:52:03.792Z,7.40
2022-12-06T04:54:30.974Z,7.60
2022-12-06T04:56:59.106Z,7.20
2022-12-06T04:59:28.027Z,5.90
2022-12-06T05:01:55.707Z,8.30
2022-12-06T05:04:23.103Z,8.20
2022-12-06T05:06:50.020Z,9.50
2022-12-06T05:09:16.782Z,8.60
2022-12-06T05:11:43.625Z,7.80
2022-12-06T05:14:10.596Z,7.60
2022-12-06T05:16:37.444Z,9.30
2022-12-06T05:19:04.426Z,8.20
2022-12-06T05:21:31.436Z,7.20
2022-12-06T05:23:58.274Z,7.40
2022-12-06T05:26:28.008Z,6.20
2022-12-06T05:28:55.993Z,8.60
2022-12-06T05:31:24.094Z,6.90
2022-12-06T05:33:51.298Z,8.10
2022-12-06T05:36:22.310Z,7.20
2022-12-06T05:38:51.795Z,7.10
2022-12-06T05:41:21.438Z,6.50
2022-12-06T05:43:49.046Z,9.20
2022-12-06T05:46:16.106Z,6.90
2022-12-06T05:48:43.063Z,5.90
2022-12-06T05:51:09.891Z,7.80
2022-12-06T05:53:36.834Z,7.20
2022-12-06T05:56:06.127Z,9.00
2022-12-06T05:58:33.287Z,7.30
2022-12-06T06:01:00.777Z,6.40
2022-12-06T06:03:27.636Z,6.70
2022-12-06T06:05:58.442Z,7.20
2022-12-06T06:08:26.608Z,6.70
2022-12-06T06:10:53.998Z,8.10
2022-12-06T06:13:20.986Z,6.90
2022-12-06T06:15:49.615Z,7.60
2022-12-06T06:18:18.211Z,8.90
2022-12-06T06:20:50.478Z,8.50
2022-12-06T06:23:18.308Z,8.30
2022-12-06T06:25:45.607Z,10.30
2022-12-06T06:28:12.412Z,8.70
2022-12-06T06:30:39.671Z,4.60
2022-12-06T06:33:06.694Z,6.40
2022-12-06T06:35:33.719Z,8.40
2022-12-06T06:38:01.079Z,9.00
2022-12-06T06:40:28.762Z,6.90
2022-12-06T06:42:56.772Z,6.00
2022-12-06T06:45:28.727Z,7.40
2022-12-06T06:47:55.939Z,9.30
2022-12-06T06:50:22.983Z,6.30
2022-12-06T06:52:49.813Z,9.50
2022-12-06T06:55:16.745Z,6.70
2022-12-06T06:57:44.250Z,9.40
2022-12-06T07:00:12.161Z,7.90
2022-12-06T07:02:39.306Z,8.20
2022-12-06T07:05:07.261Z,6.50
2022-12-06T07:07:34.148Z,8.10
2022-12-06T07:10:01.327Z,9.50
2022-12-06T07:12:28.571Z,6.30
2022-12-06T07:14:55.420Z,7.40
2022-12-06T07:17:24.075Z,8.40
2022-12-06T07:19:50.931Z,7.80
2022-12-06T07:22:17.754Z,8.10
2022-12-06T07:24:50.713Z,6.80
2022-12-06T07:27:19.171Z,7.80
2022-12-06T07:29:47.185Z,7.00
2022-12-06T07:32:13.958Z,8.10
2022-12-06T07:34:40.742Z,9.40
2022-12-06T07:37:07.599Z,7.90
2022-12-06T07:39:34.435Z,8.00
2022-12-06T07:42:19.531Z,9.20
2022-12-06T07:45:03.397Z,7.30
2022-12-06T07:47:34.795Z,6.60
2022-12-06T07:50:02.797Z,8.40
2022-12-06T07:52:33.261Z,11.30
2022-12-06T07:55:01.006Z,9.10
2022-12-06T07:57:28.592Z,10.90
2022-12-06T07:59:55.610Z,10.20
2022-12-06T08:02:25.399Z,8.50
2022-12-06T08:04:53.652Z,8.20
2022-12-06T08:07:25.593Z,8.90
2022-12-06T08:09:53.457Z,7.70
2022-12-06T08:12:22.056Z,8.10
2022-12-06T08:14:49.313Z,10.90
2022-12-06T08:17:16.577Z,9.80
2022-12-06T08:19:43.671Z,7.50
2022-12-06T08:22:11.473Z,7.50
2022-12-06T08:24:38.658Z,9.50
2022-12-06T08:27:06.052Z,10.20
2022-12-06T08:29:33.908Z,8.20
2022-12-06T08:32:00.693Z,8.40
2022-12-06T08:34:28.647Z,8.80
2022-12-06T08:37:00.233Z,9.50
2022-12-06T08:39:30.164Z,9.90
2022-12-06T08:42:01.759Z,8.50
2022-12-06T08:44:31.192Z,11.40
2022-12-06T08:47:00.349Z,9.70
2022-12-06T08:49:29.165Z,9.80
2022-12-06T08:51:56.104Z,11.50
2022-12-06T08:54:24.689Z,9.80
2022-12-06T08:56:52.922Z,11.30
2022-12-06T08:59:21.664Z,10.30
2022-12-06T09:01:49.117Z,11.60
2022-12-06T09:04:16.197Z,9.70
2022-12-06T09:06:44.387Z,7.70
2022-12-06T09:09:14.385Z,10.10
2022-12-06T09:11:42.172Z,11.80
2022-12-06T09:14:19.565Z,8.40
2022-12-06T09:16:50.114Z,10.30
2022-12-06T09:19:17.393Z,9.70
2022-12-06T09:21:45.786Z,10.30
2022-12-06T09:24:14.459Z,10.10
2022-12-06T09:26:41.923Z,12.90
2022-12-06T09:29:09.265Z,8.00
2022-12-06T09:31:39.859Z,10.20
2022-12-06T09:34:10.772Z,8.40
2022-12-06T09:37:02.228Z,10.60
2022-12-06T09:39:36.676Z,8.10
2022-12-06T09:42:29.421Z,9.50
2022-12-06T09:45:17.870Z,11.80
2022-12-06T09:48:05.906Z,11.00
2022-12-06T09:51:06.741Z,10.50
2022-12-06T09:53:57.897Z,10.40
2022-12-06T09:56:37.562Z,10.20
2022-12-06T09:59:28.815Z,10.50
2022-12-06T10:02:11.123Z,11.10
2022-12-06T10:04:53.614Z,12.00
2022-12-06T10:07:38.878Z,9.60
2022-12-06T10:10:18.064Z,10.00
2022-12-06T10:13:26.496Z,9.70
2022-12-06T10:16:07.297Z,11.00
2022-12-06T10:18:55.857Z,8.60
2022-12-06T10:21:37.451Z,12.00
2022-12-06T10:24:08.808Z,10.80
2022-12-06T10:26:50.142Z,9.50
2022-12-06T10:29:29.903Z,11.80
2022-12-06T10:32:05.429Z,9.70
2022-12-06T10:34:50.682Z,12.70
2022-12-06T10:37:47.213Z,11.10
2022-12-06T10:40:15.987Z,10.40
2022-12-06T10:42:51.572Z,10.10
2022-12-06T10:46:18.206Z,11.30
2022-12-06T10:49:00.429Z,10.50
2022-12-06T10:52:09.998Z,9.50
2022-12-06T10:54:39.863Z,10.10
2022-12-06T10:57:16.911Z,10.90
2022-12-06T11:00:14.641Z,8.90
2022-12-06T11:02:54.700Z,11.40
2022-12-06T11:05:24.414Z,11.40
2022-12-06T11:07:56.377Z,10.40
2022-12-06T11:10:28.229Z,8.50
2022-12-06T11:13:09.400Z,6.80
2022-12-06T11:15:42.264Z,10.40
2022-12-06T11:18:17.254Z,10.40
2022-12-06T11:20:56.718Z,10.30
2022-12-06T11:23:32.361Z,9.70
2022-12-06T11:26:11.368Z,9.00
2022-12-06T11:28:43.926Z,9.20
2022-12-06T11:31:24.164Z,11.10
2022-12-06T11:33:51.357Z,9.40
2022-12-06T11:36:20.840Z,9.90
2022-12-06T11:38:47.955Z,9.30
2022-12-06T11:41:21.955Z,8.40
2022-12-06T11:43:50.032Z,9.30
2022-12-06T11:46:18.619Z,11.30
2022-12-06T11:48:46.771Z,9.30
2022-12-06T11:51:23.511Z,8.10
2022-12-06T11:54:02.256Z,9.90
2022-12-06T11:56:33.580Z,8.00
2022-12-06T11:59:16.487Z,9.60
2022-12-06T12:01:47.711Z,10.90
2022-12-06T12:04:43.680Z,9.40
2022-12-06T12:07:17.332Z,11.20
2022-12-06T12:10:00.026Z,8.00
2022-12-06T12:13:23.863Z,10.40
2022-12-06T12:15:52.772Z,8.80
2022-12-06T12:18:25.122Z,10.40
2022-12-06T12:20:53.634Z,10.10
2022-12-06T12:23:38.326Z,9.20
2022-12-06T12:26:20.074Z,8.40
2022-12-06T12:29:19.479Z,8.40
2022-12-06T12:31:59.513Z,10.00
2022-12-06T12:34:29.704Z,10.40
2022-12-06T12:37:00.485Z,8.30
2022-12-06T12:39:38.171Z,8.00
2022-12-06T12:42:28.108Z,8.60
2022-12-06T12:44:59.757Z,8.30
2022-12-06T12:47:27.246Z,10.10
2022-12-06T12:50:19.961Z,10.20
2022-12-06T12:52:47.334Z,8.20
2022-12-06T12:55:23.277Z,9.20
2022-12-06T12:57:55.656Z,10.70
2022-12-06T13:00:25.638Z,10.50
2022-12-06T13:02:59.436Z,8.00
2022-12-06T13:05:35.162Z,8.10
2022-12-06T13:08:19.839Z,8.60
2022-12-06T13:10:54.075Z,9.10
2022-12-06T13:13:27.772Z,9.00
2022-12-06T13:15:56.866Z,7.60
2022-12-06T13:18:28.009Z,10.00
2022-12-06T13:20:58.664Z,9.60
2022-12-06T13:23:30.070Z,10.50
2022-12-06T13:26:40.787Z,9.50
2022-12-06T13:29:43.702Z,10.80
2022-12-06T13:32:21.843Z,7.80
2022-12-06T13:34:53.616Z,10.30
2022-12-06T13:37:46.690Z,10.80
2022-12-06T13:40:32.142Z,13.20
2022-12-06T13:43:01.157Z,10.80
2022-12-06T13:45:43.062Z,12.60
2022-12-06T13:48:24.866Z,14.60
2022-12-06T13:50:51.838Z,14.70
2022-12-06T13:53:20.466Z,15.60
2022-12-06T13:55:59.950Z,15.30
2022-12-06T13:58:33.607Z,10.30
2022-12-06T14:01:00.541Z,14.30
2022-12-06T14:03:27.395Z,14.40
2022-12-06T14:06:13.825Z,11.60
2022-12-06T14:09:00.295Z,13.60
2022-12-06T14:11:29.617Z,16.00
2022-12-06T14:14:00.162Z,14.90
2022-12-06T14:16:39.168Z,12.70
2022-12-06T14:19:32.107Z,13.20
2022-12-06T14:22:03.379Z,10.50
2022-12-06T14:24:37.412Z,16.00
2022-12-06T14:27:12.417Z,16.30
2022-12-06T14:29:40.600Z,15.20
2022-12-06T14:32:08.627Z,18.10
2022-12-06T14:34:36.618Z,10.00
2022-12-06T14:37:21.397Z,13.10
2022-12-06T14:39:52.730Z,15.30
2022-12-06T14:42:39.047Z,15.60
2022-12-06T14:45:14.425Z,15.50
2022-12-06T14:47:43.614Z,15.60
2022-12-06T14:50:25.135Z,15.20
2022-12-06T14:53:13.547Z,14.10
2022-12-06T14:55:54.932Z,14.40
2022-12-06T14:58:25.813Z,11.90
2022-12-06T15:00:55.960Z,12.40
2022-12-06T15:03:28.856Z,15.00
2022-12-06T15:06:13.512Z,14.60
2022-12-06T15:09:14.237Z,14.80
2022-12-06T15:12:01.912Z,19.50
2022-12-06T15:14:46.332Z,16.30
2022-12-06T15:19:46.293Z,18.90
2022-12-06T15:22:25.372Z,15.50
2022-12-06T15:24:56.077Z,13.10
2022-12-06T15:27:26.399Z,12.90
2022-12-06T15:29:53.463Z,15.20
2022-12-06T16:01:51.510Z,11.80
2022-12-06T16:04:23.679Z,13.60
2022-12-06T16:06:52.079Z,13.50
2022-12-06T16:09:20.422Z,14.10
2022-12-06T16:11:49.099Z,13.60
2022-12-06T16:14:17.603Z,12.70
2022-12-06T16:16:46.336Z,15.80
2022-12-06T16:19:14.741Z,15.80
2022-12-06T16:21:55.031Z,17.90
2022-12-06T16:24:23.998Z,15.30
2022-12-06T16:26:52.493Z,10.50
2022-12-06T16:29:25.147Z,12.20
2022-12-06T16:31:54.460Z,13.00
2022-12-06T16:34:23.249Z,16.10
2022-12-06T16:37:09.320Z,13.00
2022-12-06T16:39:37.464Z,19.40
2022-12-06T16:42:06.432Z,10.00
2022-12-06T16:44:51.178Z,12.80
2022-12-06T16:49:49.074Z,19.20
2022-12-06T16:52:17.990Z,15.90
2022-12-06T16:54:46.461Z,16.00
2022-12-06T16:57:15.105Z,20.40
2022-12-06T16:59:43.571Z,15.20
2022-12-06T17:02:29.525Z,15.40
2022-12-06T17:05:01.924Z,14.90
2022-12-06T17:07:30.952Z,10.90
2022-12-06T17:09:59.950Z,16.30
2022-12-06T17:12:28.358Z,19.50
2022-12-06T17:14:56.451Z,16.70
2022-12-06T17:17:26.434Z,25.20
2022-12-06T17:19:56.304Z,13.30
2022-12-06T17:22:24.852Z,18.00
2022-12-06T17:24:54.030Z,13.90
2022-12-06T17:27:22.646Z,13.60
2022-12-06T17:29:51.147Z,14.90
2022-12-06T17:32:20.631Z,14.80
2022-12-06T17:34:48.965Z,15.20
2022-12-06T17:37:17.080Z,16.30
2022-12-06T17:39:45.261Z,11.00
2022-12-06T17:42:32.162Z,15.10
2022-12-06T17:45:00.727Z,11.20
2022-12-06T17:47:29.390Z,15.10
2022-12-06T17:49:57.712Z,14.30
2022-12-06T17:52:25.980Z,9.10
2022-12-06T17:54:54.145Z,14.60
2022-12-06T17:57:22.560Z,11.30
2022-12-06T17:59:50.784Z,11.60
2022-12-06T18:02:24.267Z,9.30
2022-12-06T18:04:54.065Z,12.40
2022-12-06T18:07:22.386Z,10.90
2022-12-06T18:09:50.675Z,11.50
2022-12-06T18:12:18.964Z,11.20
2022-12-06T18:14:47.112Z,12.30
2022-12-06T18:17:15.324Z,8.80
2022-12-06T18:19:46.936Z,10.80
2022-12-06T18:22:15.703Z,11.10
2022-12-06T18:24:44.975Z,12.00
2022-12-06T18:27:14.039Z,9.00
2022-12-06T18:29:42.286Z,11.10
2022-12-06T18:32:10.601Z,12.90
2022-12-06T18:34:39.611Z,13.80
2022-12-06T18:37:07.885Z,9.10
2022-12-06T18:39:36.110Z,8.30
2022-12-06T18:42:04.474Z,11.10
2022-12-06T18:44:32.562Z,7.90
2022-12-06T18:47:00.681Z,10.40
2022-12-06T18:49:29.139Z,8.80
2022-12-06T18:51:57.311Z,8.60
2022-12-06T18:54:26.688Z,8.80
2022-12-06T18:56:58.010Z,9.60
2022-12-06T18:59:27.881Z,11.40
2022-12-06T19:01:56.842Z,7.20
2022-12-06T19:04:25.175Z,11.00
2022-12-06T19:06:54.502Z,12.50
2022-12-06T19:09:23.403Z,11.10
2022-12-06T19:11:51.650Z,10.70
2022-12-06T19:14:20.180Z,10.30
2022-12-06T19:16:50.320Z,9.00
2022-12-06T19:19:20.379Z,9.00
2022-12-06T19:21:49.814Z,10.70
2022-12-06T19:24:21.601Z,10.40
2022-12-06T19:26:55.164Z,9.80
2022-12-06T19:31:52.791Z,9.40
2022-12-06T19:34:23.814Z,11.80
2022-12-06T19:36:54.126Z,11.60
2022-12-06T19:39:23.232Z,14.50
2022-12-06T19:42:10.597Z,13.80
2022-12-06T19:44:39.564Z,12.60
2022-12-06T19:47:08.139Z,14.90
2022-12-06T19:49:36.553Z,12.80
2022-12-06T19:52:04.876Z,12.80
2022-12-06T19:54:34.250Z,9.70
2022-12-06T19:57:02.885Z,12.30
2022-12-06T19:59:34.159Z,9.80
2022-12-06T20:02:03.565Z,11.60
2022-12-06T20:04:34.056Z,10.30
2022-12-06T20:07:03.997Z,8.00
2022-12-06T20:09:33.628Z,10.60
2022-12-06T20:12:04.108Z,9.20
2022-12-06T20:14:40.621Z,7.00
2022-12-06T20:17:12.244Z,8.30
2022-12-06T20:19:43.588Z,9.70
2022-12-06T20:22:13.428Z,7.90
2022-12-06T20:24:41.848Z,7.90
2022-12-06T20:27:10.682Z,8.30
2022-12-06T20:29:40.269Z,9.30
2022-12-06T20:32:10.992Z,6.00
2022-12-06T20:34:39.480Z,8.30
2022-12-06T20:37:08.009Z,8.50
2022-12-06T20:39:36.673Z,5.60
2022-12-06T20:42:07.420Z,7.00
2022-12-06T20:44:36.860Z,8.60
2022-12-06T20:47:05.710Z,9.10
2022-12-06T20:49:34.160Z,11.60
2022-12-06T20:52:03.754Z,9.90
2022-12-06T20:54:32.129Z,8.40
2022-12-06T20:57:00.339Z,7.90
2022-12-06T20:59:29.682Z,8.40
2022-12-06T21:01:58.165Z,11.40
2022-12-06T21:04:27.025Z,9.70
2022-12-06T21:06:56.472Z,7.50
2022-12-06T21:09:24.683Z,8.90
2022-12-06T21:11:52.919Z,9.50
2022-12-06T21:14:21.243Z,11.10
2022-12-06T21:16:49.559Z,11.90
2022-12-06T21:19:19.716Z,9.20
2022-12-06T21:21:53.584Z,7.60
2022-12-06T21:24:22.557Z,9.20
2022-12-06T21:26:51.052Z,8.10
2022-12-06T21:29:28.366Z,8.30
2022-12-06T21:32:02.041Z,11.40
2022-12-06T21:34:30.751Z,10.50
2022-12-06T21:36:58.899Z,8.90
2022-12-06T21:39:27.051Z,7.80
2022-12-06T21:41:55.334Z,9.00
2022-12-06T21:44:24.217Z,6.70
2022-12-06T21:46:53.955Z,8.00
2022-12-06T21:49:22.230Z,6.90
2022-12-06T21:51:53.733Z,5.40
2022-12-06T21:54:25.007Z,7.50
2022-12-06T21:56:53.170Z,7.90
2022-12-06T21:59:21.254Z,8.40
2022-12-06T22:01:50.843Z,9.30
2022-12-06T22:04:19.425Z,9.70
2022-12-06T22:06:47.598Z,8.30
2022-12-06T22:09:16.059Z,7.90
2022-12-06T22:11:44.636Z,8.30
2022-12-06T22:14:12.997Z,7.20
2022-12-06T22:16:41.221Z,7.90
2022-12-06T22:19:09.586Z,8.90
2022-12-06T22:21:37.751Z,7.80
2022-12-06T22:24:06.257Z,8.60
2022-12-06T22:26:34.901Z,9.80
2022-12-06T22:29:03.184Z,8.20
2022-12-06T22:31:33.861Z,8.70
2022-12-06T22:34:02.862Z,6.60
2022-12-06T22:36:32.329Z,8.50
2022-12-06T22:52:51.433Z,10.10
2022-12-06T22:55:19.629Z,9.70
2022-12-06T22:57:47.805Z,10.50
2022-12-06T23:00:16.137Z,9.90
2022-12-06T23:02:44.305Z,10.50
2022-12-06T23:05:12.405Z,8.00
2022-12-06T23:07:40.604Z,7.70
2022-12-06T23:10:10.315Z,8.10
2022-12-06T23:12:39.759Z,6.80
2022-12-06T23:15:08.434Z,10.20
2022-12-06T23:17:36.550Z,9.20
2022-12-06T23:20:06.015Z,10.00
2022-12-06T23:22:34.135Z,9.70
2022-12-06T23:25:02.279Z,7.80
2022-12-06T23:27:30.474Z,8.20
2022-12-06T23:29:58.926Z,7.80
2022-12-06T23:32:27.235Z,8.00
2022-12-06T23:34:55.341Z,7.60
2022-12-06T23:37:23.580Z,7.40
2022-12-06T23:39:51.734Z,7.40
2022-12-06T23:42:19.862Z,8.40
2022-12-06T23:44:47.987Z,8.30
2022-12-06T23:47:16.030Z,10.70
2022-12-06T23:49:44.196Z,8.90
2022-12-06T23:52:12.284Z,11.00
2022-12-06T23:54:40.401Z,10.70
2022-12-06T23:57:08.536Z,9.60
2022-12-06T23:59:36.661Z,9.40
